Time;durP1;ratioP1;P1;durP2;ratioP2;P2;SDS_P1;SDS_P2;PMS_P1;PMS_P2;Temp;Humidity;BMP_temperature;BMP_pressure;BME280_temperature;BME280_humidity;BME280_pressure;Samples;Min_cycle;Max_cycle;Signal;HPM_P1;HPM_P2
2022/06/05 00:01:06;;;;;;;7.95;4.18;;;18.50;99.90;;;;;;5072865;28;20051;-70
2022/06/05 00:04:01;;;;;;;6.55;4.40;;;18.40;99.90;;;;;;5070170;28;20064;-71
2022/06/05 00:06:41;;;;;;;11.27;4.32;;;18.50;99.90;;;;;;5073143;28;20049;-70
2022/06/05 00:09:33;;;;;;;10.85;4.55;;;18.40;99.90;;;;;;5073378;28;20539;-71
2022/06/05 00:12:12;;;;;;;7.53;4.20;;;18.40;99.90;;;;;;5070318;28;20083;-71
2022/06/05 00:14:40;;;;;;;6.32;3.92;;;18.40;99.90;;;;;;5072983;28;20047;-71
2022/06/05 00:17:13;;;;;;;6.97;4.55;;;18.40;99.90;;;;;;5073131;28;20040;-71
2022/06/05 00:19:42;;;;;;;9.68;4.78;;;18.30;99.90;;;;;;5073214;28;20053;-72
2022/06/05 00:22:09;;;;;;;6.18;4.78;;;18.30;99.90;;;;;;5068991;28;20040;-72
2022/06/05 00:24:36;;;;;;;9.15;4.90;;;18.20;99.90;;;;;;5072812;28;20106;-72
2022/06/05 00:27:15;;;;;;;9.07;4.75;;;18.30;99.90;;;;;;5072918;28;20037;-71
2022/06/05 00:29:54;;;;;;;7.13;4.93;;;18.20;99.90;;;;;;5049332;28;20044;-72
2022/06/05 00:32:39;;;;;;;5.38;4.57;;;18.20;99.90;;;;;;5071967;28;20071;-72
2022/06/05 00:35:15;;;;;;;13.30;5.40;;;18.10;99.90;;;;;;5072788;28;20036;-71
2022/06/05 00:37:59;;;;;;;11.00;4.72;;;18.00;99.90;;;;;;5072630;28;20045;-72
2022/06/05 00:40:37;;;;;;;6.78;4.95;;;18.00;99.90;;;;;;5068039;28;20047;-71
2022/06/05 00:43:10;;;;;;;9.43;5.13;;;17.90;99.90;;;;;;5052744;28;20417;-71
2022/06/05 00:45:39;;;;;;;7.40;4.65;;;18.00;99.90;;;;;;5052511;28;20048;-71
2022/06/05 00:48:08;;;;;;;7.53;4.70;;;17.90;99.90;;;;;;5057220;28;20033;-71
2022/06/05 00:50:36;;;;;;;7.15;4.80;;;17.90;99.90;;;;;;5072062;28;20048;-71
2022/06/05 00:53:06;;;;;;;7.10;4.63;;;17.80;99.90;;;;;;5072291;28;20040;-71
2022/06/05 00:55:40;;;;;;;7.53;4.63;;;17.80;99.90;;;;;;5090701;28;20048;-72
2022/06/05 00:58:07;;;;;;;9.45;4.40;;;17.80;99.90;;;;;;5065360;28;20033;-71
2022/06/05 01:00:38;;;;;;;12.43;4.78;;;17.80;99.90;;;;;;5071867;28;20060;-72
2022/06/05 01:03:08;;;;;;;7.32;4.25;;;17.90;99.90;;;;;;5072284;28;20094;-71
2022/06/05 01:05:35;;;;;;;8.85;4.57;;;17.80;99.90;;;;;;5069235;28;20041;-72
2022/06/05 01:08:03;;;;;;;5.10;4.40;;;17.70;99.90;;;;;;5071997;28;20527;-72
2022/06/05 01:10:40;;;;;;;8.48;4.70;;;17.60;99.90;;;;;;5071798;28;20102;-70
2022/06/05 01:13:37;;;;;;;5.57;4.55;;;17.50;99.90;;;;;;5092118;28;20039;-71
2022/06/05 01:16:28;;;;;;;7.55;5.00;;;17.40;99.90;;;;;;5076907;28;20094;-71
2022/06/05 01:19:03;;;;;;;8.63;4.85;;;17.40;99.90;;;;;;5072238;28;20051;-72
2022/06/05 01:21:56;;;;;;;5.20;4.18;;;17.40;99.90;;;;;;5071371;28;20563;-71
2022/06/05 01:24:35;;;;;;;7.63;4.30;;;17.30;99.90;;;;;;5066937;28;20044;-71
2022/06/05 01:27:05;;;;;;;12.38;4.80;;;17.30;99.90;;;;;;5064199;28;20059;-71
2022/06/05 01:29:44;;;;;;;4.88;4.35;;;17.30;99.90;;;;;;5091940;28;20046;-71
2022/06/05 01:32:31;;;;;;;11.77;4.90;;;17.30;99.90;;;;;;5091838;28;20036;-71
2022/06/05 01:35:12;;;;;;;7.97;4.70;;;17.30;99.90;;;;;;5063891;28;20036;-71
2022/06/05 01:37:46;;;;;;;18.55;4.68;;;17.20;99.90;;;;;;5071627;28;20044;-71
2022/06/05 01:40:20;;;;;;;8.85;4.57;;;17.20;99.90;;;;;;5091302;28;20044;-71
2022/06/05 01:42:57;;;;;;;5.63;4.68;;;17.30;99.90;;;;;;5069821;28;20067;-71
2022/06/05 01:45:33;;;;;;;10.57;4.60;;;17.20;99.90;;;;;;5071563;28;20153;-71
2022/06/05 01:48:02;;;;;;;8.93;5.10;;;17.20;99.90;;;;;;5071518;28;20512;-71
2022/06/05 01:50:56;;;;;;;8.18;4.95;;;17.20;99.90;;;;;;5068811;28;20059;-71
2022/06/05 01:53:29;;;;;;;6.18;4.75;;;17.10;99.90;;;;;;5066539;28;20041;-72
2022/06/05 01:56:00;;;;;;;7.70;4.65;;;17.10;99.90;;;;;;5071670;28;20452;-71
2022/06/05 01:58:34;;;;;;;8.65;4.35;;;17.10;99.90;;;;;;5063963;28;20505;-71
2022/06/05 02:01:08;;;;;;;11.65;4.45;;;17.10;99.90;;;;;;5063091;28;20037;-71
2022/06/05 02:03:44;;;;;;;6.65;4.60;;;17.10;99.90;;;;;;5071561;28;20045;-71
2022/06/05 02:06:16;;;;;;;6.97;4.32;;;17.00;99.90;;;;;;5071326;28;20048;-71
2022/06/05 02:08:51;;;;;;;9.15;4.57;;;17.00;99.90;;;;;;5069522;28;20055;-70
2022/06/05 02:11:24;;;;;;;8.63;4.53;;;16.90;99.90;;;;;;5070935;28;20456;-71
2022/06/05 02:13:55;;;;;;;7.75;4.70;;;16.90;99.90;;;;;;5071383;28;20037;-71
2022/06/05 02:16:24;;;;;;;5.28;4.30;;;16.80;99.90;;;;;;5069719;28;20483;-71
2022/06/05 02:18:51;;;;;;;9.85;5.57;;;16.80;99.90;;;;;;5071104;28;20072;-71
2022/06/05 02:21:18;;;;;;;7.57;5.20;;;16.90;99.90;;;;;;5070844;28;20037;-71
2022/06/05 02:23:45;;;;;;;;;;;17.00;99.90;;;;;;5091794;28;20321;-71
2022/06/05 02:26:12;;;;;;;7.82;4.95;;;16.90;99.90;;;;;;5065825;28;19921;-71
2022/06/05 02:28:39;;;;;;;7.20;5.28;;;17.00;99.90;;;;;;5070949;28;20504;-71
2022/06/05 02:31:33;;;;;;;8.35;5.15;;;17.00;99.90;;;;;;5070877;28;20041;-71
2022/06/05 02:34:14;;;;;;;10.02;5.32;;;16.90;99.90;;;;;;5065273;28;20044;-71
2022/06/05 02:37:14;;;;;;;10.18;5.50;;;16.90;99.90;;;;;;5070850;28;20563;-71
2022/06/05 02:40:24;;;;;;;8.38;5.20;;;16.90;99.90;;;;;;5070947;28;20044;-71
2022/06/05 02:43:12;;;;;;;8.60;5.72;;;17.00;99.90;;;;;;5071266;28;20052;-71
2022/06/05 02:45:59;;;;;;;8.70;5.60;;;16.90;99.90;;;;;;5070929;28;20048;-70
2022/06/05 02:48:35;;;;;;;10.85;5.35;;;16.90;99.90;;;;;;5070614;28;20048;-71
2022/06/05 02:51:20;;;;;;;8.77;4.75;;;16.90;99.90;;;;;;5069522;28;20447;-71
2022/06/05 02:53:53;;;;;;;8.20;5.22;;;16.80;99.90;;;;;;5071058;28;20408;-71
2022/06/05 02:56:21;;;;;;;10.30;5.10;;;16.80;99.90;;;;;;5074067;28;20112;-71
2022/06/05 02:58:49;;;;;;;7.82;5.07;;;16.80;99.90;;;;;;5073326;28;20559;-71
2022/06/05 03:04:03;;;;;;;11.38;4.85;;;16.80;99.90;;;;;;5054736;28;20049;-71
2022/06/05 03:06:31;;;;;;;5.47;4.68;;;16.80;99.90;;;;;;5054564;28;20049;-70
2022/06/05 03:08:57;;;;;;;11.18;4.95;;;16.70;99.90;;;;;;5057819;28;20041;-70
2022/06/05 03:11:24;;;;;;;12.27;4.80;;;16.70;99.90;;;;;;5073790;28;20424;-71
2022/06/05 03:13:51;;;;;;;10.32;4.82;;;16.70;99.90;;;;;;5094412;28;20044;-71
2022/06/05 03:16:18;;;;;;;13.52;5.68;;;16.80;99.90;;;;;;5094785;28;20048;-71
2022/06/05 03:18:46;;;;;;;7.40;4.70;;;16.90;99.90;;;;;;5083519;28;20045;-72
2022/06/05 03:21:12;;;;;;;;;;;16.90;99.90;;;;;;5080268;28;20099;-72
2022/06/05 03:23:39;;;;;;;8.23;5.40;;;16.90;99.90;;;;;;5074280;28;19920;-71
2022/06/05 03:26:11;;;;;;;13.48;6.13;;;16.90;99.90;;;;;;5074039;28;20040;-71
2022/06/05 03:28:43;;;;;;;12.32;5.20;;;16.90;99.90;;;;;;5066642;28;20078;-71
2022/06/05 03:31:10;;;;;;;7.63;4.65;;;16.90;99.90;;;;;;5073688;28;20037;-71
2022/06/05 03:33:37;;;;;;;9.80;5.65;;;16.90;99.90;;;;;;5074064;28;20099;-72
2022/06/05 03:36:08;;;;;;;;;;;16.90;99.90;;;;;;5088246;28;20044;-71
2022/06/05 03:38:35;;;;;;;8.63;4.97;;;16.90;99.90;;;;;;5070711;28;20384;-71
2022/06/05 03:41:02;;;;;;;7.43;5.30;;;16.90;99.90;;;;;;5093670;28;20508;-72
2022/06/05 03:43:28;;;;;;;9.27;5.13;;;16.90;99.90;;;;;;5091010;28;20044;-72
2022/06/05 03:46:03;;;;;;;8.15;4.85;;;16.90;99.90;;;;;;5073407;28;20045;-72
2022/06/05 03:48:30;;;;;;;7.40;4.93;;;17.00;99.90;;;;;;5107467;22;20067;-69
2022/06/05 03:51:30;;;;;;;7.07;4.70;;;17.00;99.90;;;;;;5091141;28;20044;-69
2022/06/05 03:53:57;;;;;;;6.15;4.55;;;17.00;99.90;;;;;;5072414;28;20500;-68
2022/06/05 03:56:25;;;;;;;10.40;5.28;;;17.10;99.90;;;;;;5072177;28;20090;-68
2022/06/05 03:58:53;;;;;;;6.60;4.65;;;17.00;99.90;;;;;;5071528;28;20052;-68
2022/06/05 04:01:22;;;;;;;9.63;4.82;;;17.00;99.90;;;;;;5073147;28;20055;-68
2022/06/05 04:03:50;;;;;;;6.88;5.00;;;17.00;99.90;;;;;;5075712;28;20091;-68
2022/06/05 04:06:21;;;;;;;5.20;4.20;;;17.10;99.90;;;;;;5093334;28;20040;-68
2022/06/05 04:08:49;;;;;;;7.53;4.82;;;17.10;99.90;;;;;;5093770;28;20036;-68
2022/06/05 04:11:18;;;;;;;7.97;4.80;;;17.20;99.90;;;;;;5091472;28;20063;-68
2022/06/05 04:13:46;;;;;;;10.52;4.55;;;17.20;99.90;;;;;;5091711;28;20063;-68
2022/06/05 04:16:17;;;;;;;9.32;4.45;;;17.30;99.90;;;;;;5092884;28;20031;-68
2022/06/05 04:18:44;;;;;;;7.85;4.60;;;17.40;99.90;;;;;;5074764;28;20052;-68
2022/06/05 04:21:13;;;;;;;9.57;4.57;;;17.40;99.90;;;;;;5091777;28;20040;-68
2022/06/05 04:23:40;;;;;;;8.15;4.65;;;17.40;99.90;;;;;;5092998;28;20040;-67
2022/06/05 04:26:10;;;;;;;9.38;4.65;;;17.50;99.90;;;;;;5090076;28;20055;-68
2022/06/05 04:28:38;;;;;;;8.73;5.22;;;17.50;99.90;;;;;;5092634;28;20044;-68
2022/06/05 04:31:05;;;;;;;;;;;17.60;99.90;;;;;;5092303;28;20037;-68
2022/06/05 04:33:32;;;;;;;16.98;4.90;;;17.70;99.90;;;;;;5092752;28;19928;-68
2022/06/05 04:35:59;;;;;;;;;;;17.70;99.90;;;;;;5093097;28;20050;-68
2022/06/05 04:38:25;;;;;;;8.27;3.95;;;17.70;99.90;;;;;;5090854;28;19954;-68
2022/06/05 04:40:52;;;;;;;7.07;4.80;;;17.70;99.90;;;;;;5091811;28;20447;-68
2022/06/05 04:43:19;;;;;;;9.00;4.72;;;17.80;99.90;;;;;;5073196;28;20554;-68
2022/06/05 04:45:48;;;;;;;8.20;4.93;;;17.90;99.90;;;;;;5092080;28;20047;-69
2022/06/05 04:48:16;;;;;;;6.43;4.72;;;17.90;99.90;;;;;;5092667;28;20122;-68
2022/06/05 04:50:42;;;;;;;8.48;5.00;;;17.90;99.90;;;;;;5091889;28;20039;-68
2022/06/05 04:53:09;;;;;;;7.55;4.72;;;18.00;99.90;;;;;;5091855;28;20036;-68
2022/06/05 04:55:38;;;;;;;8.65;4.93;;;17.90;99.90;;;;;;5092669;28;20047;-68
2022/06/05 04:58:05;;;;;;;13.13;7.60;;;18.00;99.90;;;;;;5092711;28;20576;-68
2022/06/05 05:00:31;;;;;;;14.68;7.32;;;18.10;99.90;;;;;;5092098;28;20119;-67
2022/06/05 05:02:58;;;;;;;8.70;4.63;;;18.20;99.90;;;;;;5085618;28;20605;-68
2022/06/05 05:05:25;;;;;;;9.57;4.65;;;18.30;99.90;;;;;;5092169;28;20075;-68
2022/06/05 05:07:52;;;;;;;6.82;4.28;;;18.30;99.90;;;;;;5092480;28;20445;-68
2022/06/05 05:10:19;;;;;;;7.55;4.65;;;18.60;99.90;;;;;;5091643;28;20509;-67
2022/06/05 05:12:46;;;;;;;10.63;4.38;;;18.60;99.90;;;;;;5091308;28;20109;-67
2022/06/05 05:15:12;;;;;;;6.90;4.40;;;18.50;99.90;;;;;;5077872;28;20668;-67
2022/06/05 05:17:39;;;;;;;8.82;4.38;;;18.50;99.90;;;;;;5091224;28;20517;-67
2022/06/05 05:20:06;;;;;;;5.45;4.60;;;18.50;99.90;;;;;;5087849;28;20045;-67
2022/06/05 05:22:37;;;;;;;7.68;4.30;;;18.50;99.90;;;;;;5078917;28;20098;-68
2022/06/05 05:25:07;;;;;;;7.35;4.28;;;18.60;99.90;;;;;;5076491;28;20090;-67
2022/06/05 05:27:35;;;;;;;7.40;4.47;;;18.50;99.90;;;;;;5071708;28;20052;-67
2022/06/05 05:30:04;;;;;;;8.25;4.68;;;18.60;99.90;;;;;;5088144;28;20424;-67
2022/06/05 05:32:31;;;;;;;13.90;4.80;;;18.70;99.90;;;;;;5091903;28;20032;-68
2022/06/05 05:34:58;;;;;;;8.00;4.28;;;18.60;99.90;;;;;;5081541;28;20036;-68
2022/06/05 05:37:25;;;;;;;8.15;4.90;;;18.60;99.90;;;;;;5081542;28;20492;-67
2022/06/05 05:42:37;;;;;;;7.47;4.60;;;18.70;99.90;;;;;;5091999;28;20055;-67
2022/06/05 05:45:05;;;;;;;8.10;4.70;;;18.60;99.90;;;;;;5091582;28;20071;-67
2022/06/05 05:47:32;;;;;;;8.68;5.38;;;18.60;99.90;;;;;;5087655;28;20434;-67
2022/06/05 05:50:07;;;;;;;6.60;3.85;;;18.70;99.90;;;;;;5071355;28;20131;-67
2022/06/05 05:52:34;;;;;;;8.70;4.93;;;18.90;99.90;;;;;;5053655;28;20041;-67
2022/06/05 05:55:01;;;;;;;7.25;4.60;;;18.90;99.90;;;;;;5081069;28;20040;-67
2022/06/05 05:57:34;;;;;;;6.03;4.53;;;18.90;99.90;;;;;;5091606;28;20043;-68
2022/06/05 06:00:02;;;;;;;9.23;6.40;;;18.90;99.90;;;;;;5091385;28;20048;-68
2022/06/05 06:02:31;;;;;;;11.13;7.07;;;19.00;99.90;;;;;;5086499;28;20509;-68
2022/06/05 06:04:58;;;;;;;8.60;4.13;;;19.00;99.90;;;;;;5083082;28;20416;-68
2022/06/05 06:07:25;;;;;;;9.15;4.82;;;19.20;99.90;;;;;;5091162;28;20044;-68
2022/06/05 06:09:52;;;;;;;;;;;19.20;99.90;;;;;;5090740;28;20044;-68
2022/06/05 06:12:23;;;;;;;10.07;5.03;;;19.30;99.90;;;;;;5086455;28;20380;-68
2022/06/05 06:14:51;;;;;;;9.65;4.50;;;19.40;99.90;;;;;;5091319;28;20036;-69
2022/06/05 06:17:18;;;;;;;5.53;4.35;;;19.50;99.90;;;;;;5085012;28;20053;-67
2022/06/05 06:19:44;;;;;;;8.45;4.45;;;19.60;99.90;;;;;;5080024;28;20055;-68
2022/06/05 06:22:11;;;;;;;8.40;4.07;;;19.60;99.90;;;;;;5082736;28;20055;-68
2022/06/05 06:24:38;;;;;;;9.52;4.40;;;19.70;99.90;;;;;;5082456;28;20442;-67
2022/06/05 06:27:05;;;;;;;9.30;4.03;;;19.80;99.90;;;;;;5090375;28;20058;-68
2022/06/05 06:29:32;;;;;;;8.70;4.47;;;19.80;99.90;;;;;;5083424;28;20047;-68
2022/06/05 06:31:59;;;;;;;5.88;4.65;;;19.90;99.90;;;;;;5085657;28;20032;-68
2022/06/05 06:34:25;;;;;;;10.50;3.90;;;20.10;99.90;;;;;;5094514;28;20090;-68
2022/06/05 06:36:52;;;;;;;6.85;3.80;;;20.30;99.90;;;;;;5087128;28;20101;-68
2022/06/05 06:39:20;;;;;;;10.18;4.18;;;20.50;99.90;;;;;;5083851;28;20524;-68
2022/06/05 06:41:47;;;;;;;11.07;4.43;;;20.60;99.90;;;;;;5085482;28;20488;-67
2022/06/05 06:44:15;;;;;;;7.32;4.22;;;20.70;99.90;;;;;;5094441;28;20040;-68
2022/06/05 06:46:42;;;;;;;6.65;4.32;;;20.80;99.90;;;;;;5086014;28;20040;-67
2022/06/05 06:49:09;;;;;;;11.55;4.50;;;21.00;99.90;;;;;;5083000;28;20449;-68
2022/06/05 06:51:35;;;;;;;8.57;4.40;;;21.00;99.90;;;;;;5089926;28;20055;-68
2022/06/05 06:54:02;;;;;;;10.77;4.25;;;21.10;99.90;;;;;;5094491;28;20438;-68
2022/06/05 06:56:31;;;;;;;9.75;4.38;;;21.20;99.90;;;;;;5094500;28;20105;-68
2022/06/05 06:58:59;;;;;;;5.40;3.95;;;21.30;99.90;;;;;;5093772;28;20040;-68
2022/06/05 07:01:27;;;;;;;7.13;4.05;;;21.60;99.90;;;;;;5093758;28;20036;-68
2022/06/05 07:03:53;;;;;;;11.23;4.35;;;21.70;99.90;;;;;;5094311;28;20032;-68
2022/06/05 07:06:20;;;;;;;6.50;3.80;;;21.80;99.90;;;;;;5094252;28;20043;-68
2022/06/05 07:08:49;;;;;;;12.82;4.43;;;22.00;99.90;;;;;;5092857;28;20039;-68
2022/06/05 07:11:17;;;;;;;7.53;4.18;;;22.10;99.90;;;;;;5092100;28;20578;-68
2022/06/05 07:13:48;;;;;;;4.75;4.18;;;22.20;99.90;;;;;;5092422;28;20487;-68
2022/06/05 07:16:15;;;;;;;9.27;4.82;;;22.30;99.90;;;;;;5082839;28;20036;-68
2022/06/05 07:18:43;;;;;;;10.75;4.05;;;22.30;99.90;;;;;;5083977;28;20113;-68
2022/06/05 07:21:16;;;;;;;5.55;3.75;;;22.40;99.90;;;;;;5088875;28;20040;-68
2022/06/05 07:23:43;;;;;;;9.85;4.05;;;22.60;99.90;;;;;;5083614;28;20090;-68
2022/06/05 07:26:13;;;;;;;9.50;4.00;;;22.80;99.90;;;;;;5082614;28;20115;-68
2022/06/05 07:28:40;;;;;;;7.95;3.83;;;22.90;99.90;;;;;;5090736;28;20434;-68
2022/06/05 07:31:07;;;;;;;;;;;23.00;99.90;;;;;;5094505;28;20036;-68
2022/06/05 07:33:35;;;;;;;6.97;3.88;;;23.10;99.90;;;;;;5094191;28;19931;-68
2022/06/05 07:36:05;;;;;;;8.35;4.35;;;23.20;99.90;;;;;;5094261;28;20063;-68
2022/06/05 07:38:34;;;;;;;8.75;3.67;;;23.30;99.90;;;;;;5091942;28;20040;-68
2022/06/05 07:41:01;;;;;;;5.93;3.67;;;23.40;99.90;;;;;;5093402;28;20048;-68
2022/06/05 07:43:27;;;;;;;5.03;3.53;;;23.40;99.90;;;;;;5094454;28;20105;-68
2022/06/05 07:45:54;;;;;;;;;;;23.50;99.90;;;;;;5085952;28;20044;-68
2022/06/05 07:48:21;;;;;;;6.68;4.10;;;23.50;99.90;;;;;;5093741;28;20006;-68
2022/06/05 07:56:30;;;;;;;5.55;3.40;;;23.80;99.90;;;;;;5090140;28;20507;-68
2022/06/05 07:58:56;;;;;;;6.97;3.70;;;24.00;99.90;;;;;;5093726;28;20044;-68
2022/06/05 08:01:44;;;;;;;6.88;3.80;;;24.00;99.90;;;;;;5093202;28;20094;-68
2022/06/05 08:04:11;;;;;;;7.65;4.30;;;24.00;99.90;;;;;;5093192;28;20036;-68
2022/06/05 08:06:39;;;;;;;;;;;24.10;99.90;;;;;;5094016;28;20044;-68
2022/06/05 08:09:07;;;;;;;9.25;3.88;;;24.30;99.90;;;;;;5093587;28;19924;-68
2022/06/05 08:11:35;;;;;;;5.00;3.53;;;24.40;99.90;;;;;;5093245;28;20044;-68
2022/06/05 08:14:03;;;;;;;8.70;3.97;;;24.70;99.90;;;;;;5091027;28;20044;-68
2022/06/05 08:16:30;;;;;;;6.95;3.90;;;24.80;99.90;;;;;;5093444;28;20036;-68
2022/06/05 08:18:57;;;;;;;11.15;4.10;;;24.90;99.90;;;;;;5093351;28;20139;-68
2022/06/05 08:21:23;;;;;;;6.55;3.97;;;25.00;99.90;;;;;;5089140;28;20032;-68
2022/06/05 08:23:50;;;;;;;7.32;4.03;;;25.00;99.90;;;;;;5091856;28;20055;-68
2022/06/05 08:26:17;;;;;;;10.07;4.00;;;24.70;99.90;;;;;;5087542;28;20115;-68
2022/06/05 08:28:44;;;;;;;11.63;4.35;;;24.40;99.90;;;;;;5083039;28;20410;-68
2022/06/05 08:31:11;;;;;;;12.52;4.47;;;24.20;99.90;;;;;;5084582;28;20039;-68
2022/06/05 08:33:38;;;;;;;;;;;24.10;99.90;;;;;;5092951;28;20067;-68
2022/06/05 08:36:05;;;;;;;9.18;4.30;;;24.10;99.90;;;;;;5092943;28;19920;-68
2022/06/05 08:41:39;;;;;;;8.30;4.40;;;24.00;99.90;;;;;;5087224;28;20381;-68
2022/06/05 08:44:18;;;;;;;11.63;4.68;;;23.80;99.90;;;;;;5080219;28;20041;-68
2022/06/05 08:46:58;;;;;;;13.07;4.35;;;23.70;99.90;;;;;;5076210;28;20052;-68
2022/06/05 08:49:49;;;;;;;8.68;5.18;;;23.50;99.90;;;;;;5082296;28;20047;-68
2022/06/05 08:52:19;;;;;;;5.53;4.57;;;23.40;99.90;;;;;;5091710;28;20455;-68
2022/06/05 08:54:52;;;;;;;11.55;4.63;;;23.40;99.90;;;;;;5092671;28;20488;-68
2022/06/05 08:57:26;;;;;;;9.43;5.40;;;23.50;99.90;;;;;;5092160;28;20044;-67
2022/06/05 09:00:14;;;;;;;11.15;5.07;;;23.60;99.90;;;;;;5091949;28;20485;-68
2022/06/05 09:03:07;;;;;;;7.97;4.93;;;23.60;99.90;;;;;;5092684;28;20044;-68
2022/06/05 09:05:40;;;;;;;8.65;4.80;;;23.80;99.90;;;;;;5087570;28;20043;-68
2022/06/05 09:08:16;;;;;;;8.25;5.32;;;23.80;99.90;;;;;;5092099;28;20097;-67
2022/06/05 09:10:54;;;;;;;9.43;5.05;;;23.80;99.90;;;;;;5092031;28;20048;-68
2022/06/05 09:13:47;;;;;;;8.40;5.35;;;23.90;99.90;;;;;;5071155;28;20044;-68
2022/06/05 09:16:25;;;;;;;7.45;5.05;;;23.90;99.90;;;;;;5086079;28;20150;-68
2022/06/05 09:18:52;;;;;;;;;;;24.00;99.90;;;;;;5090343;28;20408;-68
2022/06/05 09:21:59;;;;;;;10.98;5.20;;;24.00;99.90;;;;;;5084952;28;19920;-68
2022/06/05 09:24:41;;;;;;;7.60;5.15;;;24.10;99.90;;;;;;5042581;28;20059;-68
2022/06/05 09:27:34;;;;;;;8.68;4.70;;;24.10;99.90;;;;;;5091814;28;20446;-68
2022/06/05 09:30:31;;;;;;;7.82;4.80;;;24.30;99.90;;;;;;5091746;28;20052;-67
2022/06/05 09:33:16;;;;;;;7.00;4.95;;;24.20;99.90;;;;;;5091802;28;20044;-68
2022/06/05 09:35:54;;;;;;;6.93;4.78;;;24.30;99.90;;;;;;5092126;28;20492;-68
2022/06/05 09:38:28;;;;;;;11.90;5.47;;;24.30;99.90;;;;;;5091940;28;20051;-68
2022/06/05 09:41:10;;;;;;;12.85;5.25;;;24.30;99.90;;;;;;5091312;28;20044;-68
2022/06/05 09:43:54;;;;;;;9.95;4.72;;;24.30;99.90;;;;;;5091760;28;20101;-68
2022/06/05 09:46:42;;;;;;;9.20;4.70;;;24.40;99.90;;;;;;5091898;28;20160;-68
2022/06/05 09:53:35;;;;;;;6.85;4.20;;;24.50;99.90;;;;;;5071030;28;20774;-72
2022/06/05 10:00:14;;;;;;;10.32;4.95;;;24.60;99.90;;;;;;5072098;28;20419;-72
2022/06/05 10:02:47;;;;;;;9.63;4.60;;;24.60;99.90;;;;;;5055578;28;20055;-73
2022/06/05 10:05:36;;;;;;;8.70;4.63;;;24.60;99.90;;;;;;5070453;28;20037;-72
2022/06/05 10:08:06;;;;;;;8.98;4.97;;;24.60;99.90;;;;;;5063620;28;20033;-73
2022/06/05 10:10:37;;;;;;;8.73;4.45;;;24.60;99.90;;;;;;5070858;28;20036;-72
2022/06/05 10:13:42;;;;;;;10.55;4.93;;;24.50;99.90;;;;;;5071238;28;20040;-73
2022/06/05 10:16:17;;;;;;;9.88;4.90;;;24.60;99.90;;;;;;5064802;28;20040;-73
2022/06/05 10:18:59;;;;;;;6.85;4.93;;;24.80;99.90;;;;;;5071364;28;20447;-73
2022/06/05 10:21:36;;;;;;;6.07;4.65;;;24.80;99.90;;;;;;5070764;28;20048;-73
2022/06/05 10:24:02;;;;;;;10.35;4.90;;;24.80;99.90;;;;;;5075598;28;20048;-73
2022/06/05 10:26:37;;;;;;;7.28;4.72;;;24.90;99.90;;;;;;5070851;28;20056;-73
2022/06/05 10:29:30;;;;;;;10.73;5.20;;;25.00;99.90;;;;;;5091231;28;20040;-73
2022/06/05 10:32:10;;;;;;;11.45;5.20;;;25.00;99.90;;;;;;5077013;28;20513;-73
2022/06/05 10:34:54;;;;;;;6.10;4.28;;;25.00;99.90;;;;;;5070706;28;20040;-73
2022/06/05 10:37:36;;;;;;;8.75;4.47;;;24.90;99.90;;;;;;5071099;28;20044;-73
2022/06/05 10:40:31;;;;;;;12.65;4.72;;;24.90;99.90;;;;;;5065739;28;20045;-73
2022/06/05 10:43:13;;;;;;;8.75;4.70;;;24.70;99.90;;;;;;5071023;28;20045;-73
2022/06/05 10:45:58;;;;;;;12.82;5.15;;;24.70;99.90;;;;;;5070884;28;20047;-74
2022/06/05 10:48:39;;;;;;;8.20;5.15;;;24.80;99.90;;;;;;5067561;28;20033;-74
2022/06/05 10:51:12;;;;;;;11.25;5.13;;;24.60;99.90;;;;;;5063361;28;20052;-73
2022/06/05 10:53:52;;;;;;;9.48;5.10;;;24.70;99.90;;;;;;5069707;28;20041;-73
2022/06/05 10:56:36;;;;;;;12.25;5.40;;;25.00;99.90;;;;;;5064740;28;20040;-74
2022/06/05 10:59:06;;;;;;;8.50;5.25;;;25.00;99.90;;;;;;5063268;28;20485;-74
2022/06/05 11:01:48;;;;;;;9.43;5.20;;;25.00;99.90;;;;;;5070255;28;20520;-74
2022/06/05 11:04:40;;;;;;;7.28;4.65;;;25.00;99.90;;;;;;5070754;28;20493;-73
2022/06/05 11:07:34;;;;;;;13.35;5.25;;;24.90;99.90;;;;;;5063665;28;20094;-73
2022/06/05 11:10:21;;;;;;;11.45;5.78;;;25.10;99.90;;;;;;5070307;28;20040;-73
2022/06/05 11:15:57;;;;;;;7.05;4.85;;;25.30;99.90;;;;;;5067880;28;20651;-73
2022/06/05 11:18:35;;;;;;;9.03;5.30;;;25.40;99.90;;;;;;5074183;28;20514;-74
2022/06/05 11:21:03;;;;;;;9.77;5.15;;;25.40;99.90;;;;;;5055888;28;20744;-73
2022/06/05 11:23:35;;;;;;;8.55;5.30;;;25.40;99.90;;;;;;5069855;28;20099;-74
2022/06/05 11:26:24;;;;;;;6.20;5.22;;;25.30;99.90;;;;;;5066227;28;20063;-73
2022/06/05 11:29:19;;;;;;;11.07;5.47;;;25.10;99.90;;;;;;5073970;28;20041;-73
2022/06/05 11:32:05;;;;;;;10.27;5.00;;;25.10;99.90;;;;;;5073817;28;20500;-73
2022/06/05 11:34:53;;;;;;;6.32;4.43;;;25.20;99.90;;;;;;5070533;28;20115;-73
2022/06/05 11:37:38;;;;;;;10.40;4.97;;;25.30;99.90;;;;;;5074162;28;20047;-73
2022/06/05 11:40:25;;;;;;;10.90;5.55;;;25.30;99.90;;;;;;5072425;28;20032;-73
2022/06/05 11:43:16;;;;;;;9.77;4.72;;;25.30;99.90;;;;;;5072941;28;20044;-74
2022/06/05 11:45:51;;;;;;;8.82;5.40;;;25.40;99.90;;;;;;5039415;28;20076;-73
2022/06/05 11:48:18;;;;;;;10.13;5.50;;;25.40;99.90;;;;;;5055582;28;20508;-73
2022/06/05 11:51:20;;;;;;;8.43;5.25;;;25.40;99.90;;;;;;5064987;28;20045;-73
2022/06/05 11:54:05;;;;;;;9.30;5.45;;;25.40;99.90;;;;;;5059340;28;20036;-73
2022/06/05 11:56:56;;;;;;;9.20;5.47;;;25.30;99.90;;;;;;5093770;28;20493;-73
2022/06/05 11:59:32;;;;;;;8.90;5.28;;;25.40;99.90;;;;;;5086533;28;20060;-73
2022/06/05 12:02:22;;;;;;;9.70;5.18;;;25.30;99.90;;;;;;5073097;28;20033;-73
2022/06/05 12:05:27;;;;;;;8.07;5.60;;;25.20;99.90;;;;;;5073520;28;20040;-73
2022/06/05 12:08:03;;;;;;;10.07;5.43;;;25.20;99.90;;;;;;5070638;28;20049;-73
2022/06/05 12:10:33;;;;;;;10.55;5.47;;;25.50;99.90;;;;;;5072868;28;20044;-73
2022/06/05 12:13:14;;;;;;;8.98;5.57;;;25.70;99.90;;;;;;5073323;28;20502;-73
2022/06/05 12:15:54;;;;;;;11.63;5.63;;;25.70;99.90;;;;;;5073135;28;20413;-73
2022/06/05 12:18:44;;;;;;;8.82;5.25;;;25.70;99.90;;;;;;5068416;28;20036;-73
2022/06/05 12:21:26;;;;;;;7.68;4.78;;;25.50;99.90;;;;;;5066201;28;20040;-74
2022/06/05 12:24:11;;;;;;;9.05;5.30;;;25.50;99.90;;;;;;5073160;28;20053;-73
2022/06/05 12:26:59;;;;;;;8.80;5.25;;;25.30;99.90;;;;;;5065512;28;20051;-73
2022/06/05 12:29:32;;;;;;;;;;;25.30;99.90;;;;;;5072856;28;20048;-73
2022/06/05 12:32:06;;;;;;;10.27;5.80;;;25.40;99.90;;;;;;5072449;28;19920;-73
2022/06/05 12:34:51;;;;;;;8.50;5.78;;;25.40;99.90;;;;;;5071112;28;20033;-73
2022/06/05 12:37:28;;;;;;;7.45;5.45;;;25.50;99.90;;;;;;5070919;28;20114;-73
2022/06/05 12:39:56;;;;;;;10.70;5.90;;;25.40;99.90;;;;;;5092481;28;20055;-74
2022/06/05 12:42:45;;;;;;;11.82;5.95;;;25.40;99.90;;;;;;5091814;28;20466;-74
2022/06/05 12:45:17;;;;;;;10.32;5.85;;;25.40;99.90;;;;;;5066415;28;20063;-73
2022/06/05 12:47:59;;;;;;;9.55;6.07;;;25.40;99.90;;;;;;5072776;28;20049;-73
2022/06/05 12:51:05;;;;;;;9.00;5.72;;;25.60;99.90;;;;;;5070052;28;20040;-73
2022/06/05 12:53:50;;;;;;;12.60;6.13;;;25.50;99.90;;;;;;5068957;28;20044;-73
2022/06/05 12:56:35;;;;;;;8.02;6.05;;;25.20;99.90;;;;;;5072282;28;20036;-74
2022/06/05 12:59:10;;;;;;;9.20;5.88;;;25.00;99.90;;;;;;5065695;28;20041;-73
2022/06/05 13:02:02;;;;;;;7.68;6.25;;;24.80;99.90;;;;;;5071808;28;20436;-73
2022/06/05 13:04:35;;;;;;;7.45;5.85;;;24.80;99.90;;;;;;5072421;28;20412;-73
2022/06/05 13:07:04;;;;;;;9.32;6.07;;;24.80;99.90;;;;;;5072195;28;20045;-73
2022/06/05 13:09:46;;;;;;;11.63;6.53;;;24.80;99.90;;;;;;5068939;28;20032;-74
2022/06/05 13:12:35;;;;;;;8.63;6.07;;;24.70;99.90;;;;;;5052465;28;20059;-73
2022/06/05 13:15:28;;;;;;;8.85;6.28;;;24.60;99.90;;;;;;5052128;28;20084;-73
2022/06/05 13:17:57;;;;;;;10.93;6.20;;;25.00;99.90;;;;;;5063771;28;20040;-74
2022/06/05 13:21:08;;;;;;;10.70;6.10;;;25.50;99.90;;;;;;5071676;28;20044;-73
2022/06/05 13:23:46;;;;;;;9.20;5.80;;;25.90;99.90;;;;;;5071992;28;20037;-74
2022/06/05 13:26:39;;;;;;;8.45;5.90;;;26.00;99.90;;;;;;5053081;28;20432;-74
2022/06/05 13:29:36;;;;;;;14.52;6.47;;;26.10;99.90;;;;;;5064690;28;20036;-73
2022/06/05 13:32:12;;;;;;;9.43;5.95;;;26.10;99.90;;;;;;5071578;28;20037;-73
2022/06/05 13:35:06;;;;;;;10.00;5.43;;;25.90;99.90;;;;;;5068380;28;20040;-74
2022/06/05 13:37:52;;;;;;;13.10;5.47;;;25.90;99.90;;;;;;5071493;28;20045;-74
2022/06/05 13:40:22;;;;;;;9.00;6.10;;;26.00;99.90;;;;;;5071020;28;20408;-74
2022/06/05 13:42:50;;;;;;;6.47;5.88;;;26.00;99.90;;;;;;5070916;28;20181;-74
2022/06/05 13:45:36;;;;;;;10.07;6.15;;;25.90;99.90;;;;;;5071382;28;20044;-74
2022/06/05 13:48:08;;;;;;;10.82;6.25;;;26.00;99.90;;;;;;5051365;28;20049;-73
2022/06/05 13:50:59;;;;;;;7.63;6.45;;;25.80;99.90;;;;;;5051365;28;20048;-73
2022/06/05 13:53:37;;;;;;;9.85;7.18;;;25.40;99.90;;;;;;5058621;28;20043;-74